createdAt,value
2017-12-26T00:00:31.469Z,2.07
2017-12-26T00:02:58.961Z,1.93
2017-12-26T00:05:26.410Z,1.87
2017-12-26T00:07:53.906Z,2.13
2017-12-26T00:10:22.124Z,2.93
2017-12-26T00:12:51.266Z,1.73
2017-12-26T00:15:19.527Z,2.50
2017-12-26T00:17:46.983Z,2.07
2017-12-26T00:20:14.438Z,1.60
2017-12-26T00:22:41.918Z,2.27
2017-12-26T00:25:10.138Z,2.00
2017-12-26T00:27:37.624Z,2.20
2017-12-26T00:30:05.078Z,2.27
2017-12-26T00:32:32.530Z,2.60
2017-12-26T00:35:00.005Z,1.97
2017-12-26T00:37:27.461Z,2.10
2017-12-26T00:39:54.957Z,2.60
2017-12-26T00:42:22.432Z,2.00
2017-12-26T00:44:49.911Z,1.53
2017-12-26T00:47:17.363Z,2.00
2017-12-26T00:49:44.833Z,2.13
2017-12-26T00:52:12.326Z,2.03
2017-12-26T00:54:39.781Z,2.30
2017-12-26T00:57:07.233Z,1.80
2017-12-26T00:59:34.729Z,1.87
2017-12-26T01:02:02.174Z,1.83
2017-12-26T01:04:30.387Z,2.50
2017-12-26T01:06:57.877Z,1.67
2017-12-26T01:09:25.353Z,2.57
2017-12-26T01:11:52.803Z,1.90
2017-12-26T01:14:20.258Z,2.83
2017-12-26T01:16:47.725Z,1.77
2017-12-26T01:19:15.201Z,2.50
2017-12-26T01:21:42.641Z,2.70
2017-12-26T01:24:10.109Z,2.30
2017-12-26T01:26:38.329Z,1.87
2017-12-26T01:29:05.903Z,2.90
2017-12-26T01:31:33.365Z,2.90
2017-12-26T01:34:00.826Z,3.13
2017-12-26T01:36:28.307Z,2.13
2017-12-26T01:38:55.786Z,3.30
2017-12-26T01:41:24.005Z,2.80
2017-12-26T01:43:53.162Z,2.57
2017-12-26T01:46:23.517Z,3.60
2017-12-26T01:48:50.969Z,2.73
2017-12-26T01:51:18.420Z,3.27
2017-12-26T01:53:45.887Z,3.33
2017-12-26T01:56:13.369Z,2.83
2017-12-26T01:58:40.824Z,2.90
2017-12-26T02:01:08.276Z,4.03
2017-12-26T02:03:35.766Z,2.90
2017-12-26T02:06:03.222Z,4.00
2017-12-26T02:08:32.037Z,3.30
2017-12-26T02:11:00.290Z,3.67
2017-12-26T02:13:27.741Z,3.23
2017-12-26T02:15:55.233Z,3.83
2017-12-26T02:18:24.378Z,3.00
2017-12-26T02:20:51.851Z,2.10
2017-12-26T02:23:19.325Z,2.33
2017-12-26T02:25:46.804Z,3.83
2017-12-26T02:28:14.288Z,3.80
2017-12-26T02:30:41.762Z,3.60
2017-12-26T02:33:09.218Z,3.60
2017-12-26T02:35:36.862Z,3.87
2017-12-26T02:38:04.405Z,4.13
2017-12-26T02:40:31.872Z,4.03
2017-12-26T02:42:59.354Z,4.27
2017-12-26T02:45:26.809Z,4.70
2017-12-26T02:47:54.308Z,4.72
2017-12-26T02:50:21.786Z,4.27
2017-12-26T02:52:49.238Z,4.80
2017-12-26T02:55:17.462Z,4.90
2017-12-26T02:57:44.950Z,4.80
2017-12-26T03:00:12.417Z,4.80
2017-12-26T03:02:39.908Z,3.40
2017-12-26T03:05:08.122Z,4.90
2017-12-26T03:07:35.610Z,4.70
2017-12-26T03:10:03.069Z,3.90
2017-12-26T03:12:30.529Z,4.50
2017-12-26T03:14:58.009Z,5.50
2017-12-26T03:17:26.234Z,5.10
2017-12-26T03:19:53.694Z,6.13
2017-12-26T03:22:21.182Z,5.70
2017-12-26T03:24:48.634Z,5.27
2017-12-26T03:27:16.114Z,5.30
2017-12-26T03:29:44.330Z,5.53
2017-12-26T03:32:11.808Z,6.00
2017-12-26T03:34:39.265Z,5.70
2017-12-26T03:37:06.741Z,7.00
2017-12-26T03:39:34.229Z,5.57
2017-12-26T03:42:01.678Z,5.17
2017-12-26T03:44:29.139Z,5.87
2017-12-26T03:46:56.614Z,5.10
2017-12-26T03:49:24.094Z,5.70
2017-12-26T03:51:51.551Z,5.93
2017-12-26T03:54:19.024Z,5.53
2017-12-26T03:56:46.497Z,5.70
2017-12-26T03:59:14.793Z,6.00
2017-12-26T04:01:42.540Z,5.80
2017-12-26T04:04:10.241Z,6.27
2017-12-26T04:06:37.705Z,6.37
2017-12-26T04:09:05.193Z,3.10
2017-12-26T04:11:32.648Z,6.20
2017-12-26T04:14:00.110Z,5.47
2017-12-26T04:16:27.591Z,6.77
2017-12-26T04:18:55.077Z,6.00
2017-12-26T04:21:23.297Z,6.93
2017-12-26T04:23:50.774Z,6.70
2017-12-26T04:26:18.257Z,6.47
2017-12-26T04:28:45.751Z,6.77
2017-12-26T04:31:13.201Z,5.70
2017-12-26T04:33:40.681Z,7.03
2017-12-26T04:36:08.175Z,5.00
2017-12-26T04:38:35.630Z,7.47
2017-12-26T04:41:03.086Z,6.27
2017-12-26T04:43:30.574Z,5.87
2017-12-26T04:45:58.793Z,6.73
2017-12-26T04:48:27.386Z,6.60
2017-12-26T04:50:54.866Z,7.17
2017-12-26T04:53:22.350Z,6.03
2017-12-26T04:55:49.801Z,6.93
2017-12-26T04:58:17.306Z,7.50
2017-12-26T05:00:44.765Z,5.37
2017-12-26T05:03:12.231Z,7.25
2017-12-26T05:05:39.717Z,5.23
2017-12-26T05:08:07.173Z,5.50
2017-12-26T05:10:34.653Z,5.40
2017-12-26T05:13:02.125Z,5.15
2017-12-26T05:15:29.576Z,3.57
2017-12-26T05:17:57.053Z,5.13
2017-12-26T05:20:24.563Z,5.83
2017-12-26T05:22:52.809Z,6.30
2017-12-26T05:25:20.281Z,5.60
2017-12-26T05:27:47.751Z,4.90
2017-12-26T05:30:15.997Z,3.80
2017-12-26T05:32:43.474Z,4.70
2017-12-26T05:35:11.738Z,3.87
2017-12-26T05:37:39.209Z,4.67
2017-12-26T05:40:06.686Z,3.87
2017-12-26T05:42:34.153Z,5.00
2017-12-26T05:45:01.781Z,4.40
2017-12-26T05:47:29.245Z,4.47
2017-12-26T05:49:57.290Z,6.12
2017-12-26T05:52:25.274Z,5.07
2017-12-26T05:54:52.753Z,3.30
2017-12-26T05:57:20.215Z,2.30
2017-12-26T05:59:47.724Z,4.60
2017-12-26T06:02:15.170Z,4.00
2017-12-26T06:04:42.621Z,4.63
2017-12-26T06:07:10.098Z,5.77
2017-12-26T06:09:37.547Z,3.50
2017-12-26T06:12:05.021Z,4.03
2017-12-26T06:14:32.473Z,3.20
2017-12-26T06:16:59.958Z,5.27
2017-12-26T06:19:27.680Z,3.25
2017-12-26T06:21:55.129Z,2.90
2017-12-26T06:24:22.606Z,4.00
2017-12-26T06:26:50.837Z,3.47
2017-12-26T06:29:18.321Z,3.00
2017-12-26T06:31:46.514Z,3.20
2017-12-26T06:34:13.970Z,3.10
2017-12-26T06:36:42.213Z,3.23
2017-12-26T06:39:09.669Z,2.50
2017-12-26T06:41:37.140Z,2.53
2017-12-26T06:44:04.614Z,1.73
2017-12-26T06:46:32.070Z,2.50
2017-12-26T06:49:00.322Z,2.43
2017-12-26T06:51:28.978Z,2.00
2017-12-26T06:53:56.441Z,2.90
2017-12-26T06:56:23.918Z,2.47
2017-12-26T06:58:51.376Z,2.30
2017-12-26T07:01:18.867Z,2.53
2017-12-26T07:03:46.321Z,2.23
2017-12-26T07:06:14.417Z,1.47
2017-12-26T07:08:41.879Z,3.00
2017-12-26T07:11:09.343Z,2.00
2017-12-26T07:13:36.834Z,2.70
2017-12-26T07:16:04.285Z,1.87
2017-12-26T07:18:31.789Z,2.80
2017-12-26T07:21:05.634Z,2.33
2017-12-26T07:23:33.096Z,3.03
2017-12-26T07:26:00.594Z,3.50
2017-12-26T07:28:29.362Z,3.15
2017-12-26T07:30:56.805Z,3.67
2017-12-26T07:33:24.282Z,2.90
2017-12-26T07:35:51.757Z,2.77
2017-12-26T07:38:19.229Z,2.83
2017-12-26T07:40:46.686Z,2.40
2017-12-26T07:43:14.154Z,2.80
2017-12-26T07:45:42.390Z,4.03
2017-12-26T07:48:10.380Z,3.57
2017-12-26T07:50:37.858Z,4.33
2017-12-26T07:53:05.310Z,4.03
2017-12-26T07:55:32.785Z,3.83
2017-12-26T07:58:00.996Z,4.00
2017-12-26T08:00:29.109Z,3.33
2017-12-26T08:02:57.177Z,4.53
2017-12-26T08:05:24.669Z,3.97
2017-12-26T08:07:52.132Z,3.63
2017-12-26T08:10:19.608Z,3.43
2017-12-26T08:12:47.685Z,3.53
2017-12-26T08:15:15.307Z,4.03
2017-12-26T08:17:42.986Z,2.73
2017-12-26T08:20:10.613Z,3.37
2017-12-26T08:22:38.982Z,3.70
2017-12-26T08:25:06.702Z,3.73
2017-12-26T08:27:34.325Z,3.07
2017-12-26T08:30:01.834Z,3.33
2017-12-26T08:32:29.294Z,3.50
2017-12-26T08:34:56.742Z,3.87
2017-12-26T08:37:24.205Z,2.70
2017-12-26T08:39:51.738Z,3.00
2017-12-26T08:42:19.988Z,3.07
2017-12-26T08:44:47.438Z,3.93
2017-12-26T08:47:14.880Z,3.73
2017-12-26T08:49:42.353Z,3.23
2017-12-26T08:52:09.841Z,3.10
2017-12-26T08:54:38.161Z,3.60
2017-12-26T08:57:05.731Z,2.97
2017-12-26T08:59:33.186Z,2.77
2017-12-26T09:02:00.688Z,2.97
2017-12-26T09:04:28.939Z,4.60
2017-12-26T09:06:56.418Z,3.00
2017-12-26T09:09:23.902Z,2.70
2017-12-26T09:11:51.349Z,5.20
2017-12-26T09:14:19.610Z,3.40
2017-12-26T09:16:47.094Z,3.60
2017-12-26T09:19:15.331Z,4.40
2017-12-26T09:21:42.802Z,4.87
2017-12-26T09:24:10.250Z,2.80
2017-12-26T09:26:37.731Z,4.77
2017-12-26T09:29:05.953Z,3.17
2017-12-26T09:31:33.472Z,3.30
2017-12-26T09:34:01.715Z,4.70
2017-12-26T09:36:29.167Z,4.23
2017-12-26T09:39:00.976Z,3.90
2017-12-26T09:41:29.182Z,4.43
2017-12-26T09:43:56.646Z,2.90
2017-12-26T09:46:24.093Z,4.50
2017-12-26T09:48:51.576Z,2.93
2017-12-26T09:51:19.090Z,3.20
2017-12-26T09:53:46.644Z,1.77
2017-12-26T09:56:14.142Z,4.10
2017-12-26T09:58:41.814Z,2.57
2017-12-26T10:01:09.926Z,4.20
2017-12-26T10:03:37.422Z,3.90
2017-12-26T10:06:04.893Z,3.30
2017-12-26T10:08:32.352Z,4.00
2017-12-26T10:11:00.706Z,2.90
2017-12-26T10:13:28.189Z,2.60
2017-12-26T10:15:55.678Z,3.27
2017-12-26T10:18:23.125Z,2.97
2017-12-26T10:20:50.586Z,2.90
2017-12-26T10:23:18.069Z,2.57
2017-12-26T10:25:46.326Z,2.63
2017-12-26T10:28:13.786Z,2.60
2017-12-26T10:30:41.811Z,2.20
2017-12-26T10:33:09.275Z,2.70
2017-12-26T10:35:36.795Z,2.17
2017-12-26T10:38:05.087Z,2.87
2017-12-26T10:40:32.548Z,2.70
2017-12-26T10:43:00.031Z,1.37
2017-12-26T10:45:27.519Z,2.23
2017-12-26T10:47:54.976Z,1.57
2017-12-26T10:50:22.446Z,2.17
2017-12-26T10:52:49.935Z,3.17
2017-12-26T10:55:17.616Z,4.50
2017-12-26T10:57:45.118Z,3.10
2017-12-26T11:00:12.618Z,1.70
2017-12-26T11:02:40.106Z,1.87
2017-12-26T11:05:09.267Z,2.60
2017-12-26T11:07:36.782Z,2.43
2017-12-26T11:10:04.265Z,2.03
2017-12-26T11:12:32.113Z,1.70
2017-12-26T11:15:00.336Z,2.80
2017-12-26T11:17:27.842Z,1.07
2017-12-26T11:19:55.807Z,1.80
2017-12-26T11:22:23.287Z,1.73
2017-12-26T11:24:50.776Z,1.53
2017-12-26T11:27:18.255Z,2.10
2017-12-26T11:29:45.811Z,2.00
2017-12-26T11:32:13.274Z,2.50
2017-12-26T11:34:40.766Z,2.40
2017-12-26T11:37:08.234Z,3.67
2017-12-26T11:39:35.692Z,3.10
2017-12-26T11:42:03.166Z,2.30
2017-12-26T11:44:30.642Z,3.30
2017-12-26T11:46:58.118Z,1.87
2017-12-26T11:49:25.611Z,1.90
2017-12-26T11:51:53.094Z,2.30
2017-12-26T11:54:20.603Z,2.60
2017-12-26T11:56:48.071Z,2.90
2017-12-26T11:59:15.534Z,1.87
2017-12-26T12:01:43.083Z,2.30
2017-12-26T12:04:10.568Z,2.00
2017-12-26T12:06:38.058Z,2.37
2017-12-26T12:09:06.313Z,1.97
2017-12-26T12:11:33.841Z,2.00
2017-12-26T12:14:01.471Z,3.00
2017-12-26T12:16:29.762Z,2.50
2017-12-26T12:18:57.344Z,2.30
2017-12-26T12:21:24.816Z,1.50
2017-12-26T12:23:52.422Z,2.70
2017-12-26T12:26:19.951Z,4.03
2017-12-26T12:28:47.464Z,2.20
2017-12-26T12:31:14.954Z,2.10
2017-12-26T12:33:42.419Z,2.47
2017-12-26T12:36:09.891Z,1.57
2017-12-26T12:38:37.379Z,2.30
2017-12-26T12:41:04.839Z,1.20
2017-12-26T12:43:34.011Z,2.20
2017-12-26T12:46:01.474Z,2.00
2017-12-26T12:48:29.738Z,1.70
2017-12-26T12:50:57.222Z,2.10
2017-12-26T12:53:25.475Z,2.13
2017-12-26T12:55:52.934Z,1.30
2017-12-26T12:58:20.426Z,1.73
2017-12-26T13:00:48.671Z,2.20
2017-12-26T13:03:16.174Z,1.87
2017-12-26T13:05:43.670Z,1.20
2017-12-26T13:08:11.159Z,2.60
2017-12-26T13:10:38.642Z,1.70
2017-12-26T13:13:06.098Z,1.33
2017-12-26T13:15:34.178Z,1.65
2017-12-26T13:18:01.639Z,2.00
2017-12-26T13:20:29.125Z,1.53
2017-12-26T13:22:56.616Z,1.70
2017-12-26T13:25:24.097Z,1.57
2017-12-26T13:27:52.347Z,1.43
2017-12-26T13:30:19.811Z,2.00
2017-12-26T13:32:47.290Z,1.47
2017-12-26T13:35:15.546Z,1.50
2017-12-26T13:37:43.011Z,2.27
2017-12-26T13:40:11.242Z,1.37
2017-12-26T13:42:38.734Z,1.90
2017-12-26T13:45:06.194Z,1.23
2017-12-26T13:47:33.669Z,1.40
2017-12-26T13:50:01.962Z,1.13
2017-12-26T13:52:29.434Z,1.73
2017-12-26T13:54:56.909Z,1.70
2017-12-26T13:57:24.390Z,1.43
2017-12-26T13:59:52.039Z,1.40
2017-12-26T14:02:19.506Z,1.47
2017-12-26T14:04:46.995Z,0.87
2017-12-26T14:07:15.227Z,1.90
2017-12-26T14:09:42.716Z,1.30
2017-12-26T14:12:10.179Z,1.53
2017-12-26T14:14:37.682Z,1.60
2017-12-26T14:17:05.156Z,1.23
2017-12-26T14:19:32.687Z,1.30
2017-12-26T14:22:00.261Z,1.30
2017-12-26T14:24:27.745Z,1.53
2017-12-26T14:26:55.204Z,1.60
2017-12-26T14:29:22.689Z,2.20
2017-12-26T14:31:50.142Z,1.83
2017-12-26T14:34:17.634Z,1.30
2017-12-26T14:36:45.890Z,1.43
2017-12-26T14:39:14.146Z,1.00
2017-12-26T14:41:42.388Z,1.33
2017-12-26T14:44:09.861Z,1.23
2017-12-26T14:46:37.318Z,1.03
2017-12-26T14:49:05.701Z,1.93
2017-12-26T14:51:33.194Z,2.37
2017-12-26T14:54:00.647Z,1.70
2017-12-26T14:56:28.090Z,1.07
2017-12-26T14:58:55.566Z,1.80
2017-12-26T15:01:23.027Z,1.23
2017-12-26T15:03:51.291Z,1.00
2017-12-26T15:06:18.742Z,1.30
2017-12-26T15:08:46.198Z,1.27
2017-12-26T15:11:13.678Z,2.33
2017-12-26T15:13:42.101Z,1.50
2017-12-26T15:16:10.149Z,1.23
2017-12-26T15:18:37.698Z,2.10
2017-12-26T15:21:06.870Z,1.77
2017-12-26T15:23:34.321Z,2.17
2017-12-26T15:26:01.778Z,1.30
2017-12-26T15:28:29.254Z,1.70
2017-12-26T15:30:56.704Z,1.90
2017-12-26T15:33:24.202Z,1.57
2017-12-26T15:35:51.661Z,1.60
2017-12-26T15:38:19.150Z,1.70
2017-12-26T15:40:46.621Z,1.77
2017-12-26T15:43:14.105Z,1.43
2017-12-26T15:45:41.556Z,1.30
2017-12-26T15:48:09.067Z,1.60
2017-12-26T15:50:36.943Z,2.25
2017-12-26T15:53:04.345Z,2.30
2017-12-26T15:55:31.825Z,2.27
2017-12-26T15:58:00.045Z,2.00
2017-12-26T16:00:27.521Z,1.70
2017-12-26T16:02:54.978Z,2.80
2017-12-26T16:05:22.509Z,2.50
2017-12-26T16:07:49.978Z,2.03
2017-12-26T16:10:17.435Z,1.97
2017-12-26T16:12:44.930Z,2.00
2017-12-26T16:15:12.402Z,2.30
2017-12-26T16:17:40.703Z,2.67
2017-12-26T16:20:08.150Z,2.57
2017-12-26T16:22:35.598Z,2.33
2017-12-26T16:25:03.081Z,2.30
2017-12-26T16:27:31.365Z,1.90
2017-12-26T16:29:58.838Z,3.00
2017-12-26T16:32:26.311Z,3.10
2017-12-26T16:34:53.773Z,2.43
2017-12-26T16:37:21.226Z,2.00
2017-12-26T16:39:48.741Z,2.50
2017-12-26T16:42:16.195Z,3.30
2017-12-26T16:44:44.430Z,3.20
2017-12-26T16:47:11.886Z,2.77
2017-12-26T16:49:39.513Z,2.63
2017-12-26T16:52:07.883Z,2.00
2017-12-26T16:54:35.356Z,2.40
2017-12-26T16:57:02.810Z,2.50
2017-12-26T16:59:31.176Z,2.43
2017-12-26T17:01:58.662Z,2.67
2017-12-26T17:04:26.135Z,3.33
2017-12-26T17:06:53.715Z,2.80
2017-12-26T17:09:21.190Z,2.83
2017-12-26T17:11:48.650Z,2.30
2017-12-26T17:14:16.906Z,2.63
2017-12-26T17:16:44.370Z,2.40
2017-12-26T17:19:11.825Z,2.50
2017-12-26T17:21:39.307Z,2.30
2017-12-26T17:24:07.539Z,4.33
2017-12-26T17:26:35.013Z,3.27
2017-12-26T17:29:02.501Z,2.93
2017-12-26T17:31:29.977Z,3.10
2017-12-26T17:33:57.433Z,2.03
2017-12-26T17:36:25.681Z,2.70
2017-12-26T17:38:53.167Z,2.70
2017-12-26T17:41:20.606Z,2.53
2017-12-26T17:43:48.097Z,2.07
2017-12-26T17:46:15.562Z,1.90
2017-12-26T17:48:43.041Z,2.07
2017-12-26T17:51:11.281Z,2.33
2017-12-26T17:53:40.173Z,3.03
2017-12-26T17:56:07.694Z,2.60
2017-12-26T17:58:36.266Z,2.17
2017-12-26T18:01:04.120Z,2.20
2017-12-26T18:03:32.867Z,1.70
2017-12-26T18:06:00.385Z,2.77
2017-12-26T18:08:28.113Z,2.63
2017-12-26T18:10:55.600Z,2.17
2017-12-26T18:13:23.212Z,2.10
2017-12-26T18:15:50.886Z,2.80
2017-12-26T18:18:18.523Z,2.20
2017-12-26T18:20:46.845Z,2.67
2017-12-26T18:23:14.466Z,3.07
2017-12-26T18:25:42.189Z,2.43
2017-12-26T18:28:10.521Z,2.20
2017-12-26T18:30:38.046Z,2.50
2017-12-26T18:33:05.828Z,2.37
2017-12-26T18:35:33.392Z,2.30
2017-12-26T18:38:00.900Z,1.60
2017-12-26T18:40:28.388Z,2.10
2017-12-26T18:42:55.881Z,2.23
2017-12-26T18:45:23.358Z,2.67
2017-12-26T18:47:50.806Z,2.20
2017-12-26T18:50:18.269Z,2.70
2017-12-26T18:52:45.726Z,4.00
2017-12-26T18:55:13.201Z,3.00
2017-12-26T18:57:40.652Z,2.30
2017-12-26T19:00:08.191Z,2.70
2017-12-26T19:02:35.637Z,2.53
2017-12-26T19:05:03.716Z,2.53
2017-12-26T19:07:31.182Z,1.20
2017-12-26T19:09:58.658Z,2.33
2017-12-26T19:12:26.107Z,2.70
2017-12-26T19:14:54.325Z,2.23
2017-12-26T19:17:21.809Z,2.23
2017-12-26T19:19:50.214Z,2.40
2017-12-26T19:22:17.936Z,2.30
2017-12-26T19:24:46.350Z,2.20
2017-12-26T19:27:14.208Z,2.80
2017-12-26T19:29:41.758Z,2.10
2017-12-26T19:32:10.031Z,2.23
2017-12-26T19:34:38.274Z,1.90
2017-12-26T19:37:05.733Z,2.13
2017-12-26T19:39:34.900Z,1.53
2017-12-26T19:42:02.410Z,1.60
2017-12-26T19:44:29.877Z,2.03
2017-12-26T19:46:57.344Z,2.33
2017-12-26T19:49:24.833Z,2.20
2017-12-26T19:51:52.304Z,2.00
2017-12-26T19:54:20.346Z,2.30
2017-12-26T19:56:47.800Z,2.23
2017-12-26T19:59:15.358Z,1.97
2017-12-26T20:01:43.665Z,2.00
2017-12-26T20:04:11.117Z,2.50
2017-12-26T20:06:38.597Z,1.73
2017-12-26T20:09:06.074Z,2.37
2017-12-26T20:11:34.475Z,2.60
2017-12-26T20:14:01.975Z,3.10
2017-12-26T20:16:29.459Z,2.70
2017-12-26T20:18:56.946Z,2.50
2017-12-26T20:21:24.458Z,2.53
2017-12-26T20:23:51.926Z,1.90
2017-12-26T20:26:19.746Z,2.90
2017-12-26T20:28:53.534Z,2.33
2017-12-26T20:31:21.034Z,2.83
2017-12-26T20:33:48.505Z,2.60
2017-12-26T20:36:15.965Z,2.87
2017-12-26T20:38:43.426Z,3.90
2017-12-26T20:41:10.904Z,3.83
2017-12-26T20:43:38.364Z,3.70
2017-12-26T20:46:05.837Z,2.50
2017-12-26T20:48:33.301Z,2.77
2017-12-26T20:51:00.767Z,2.50
2017-12-26T20:53:28.444Z,2.10
2017-12-26T20:55:56.680Z,2.23
2017-12-26T20:58:25.000Z,2.20
2017-12-26T21:00:53.282Z,2.40
2017-12-26T21:03:21.538Z,2.30
2017-12-26T21:05:49.790Z,2.10
2017-12-26T21:08:18.002Z,1.90
2017-12-26T21:10:45.561Z,2.60
2017-12-26T21:13:13.849Z,3.00
2017-12-26T21:15:42.119Z,2.47
2017-12-26T21:18:10.347Z,2.20
2017-12-26T21:20:37.944Z,2.47
2017-12-26T21:23:06.237Z,2.10
2017-12-26T21:25:34.446Z,2.23
2017-12-26T21:28:01.964Z,1.90
2017-12-26T21:30:30.330Z,2.03
2017-12-26T21:32:57.882Z,2.00
2017-12-26T21:35:25.330Z,2.40
2017-12-26T21:37:52.800Z,2.13
2017-12-26T21:40:20.326Z,2.03
2017-12-26T21:42:47.841Z,1.60
2017-12-26T21:45:15.356Z,1.90
2017-12-26T21:47:42.889Z,2.67
2017-12-26T21:50:10.451Z,2.03
2017-12-26T21:52:37.973Z,1.43
2017-12-26T21:55:06.282Z,1.80
2017-12-26T21:57:33.769Z,1.17
2017-12-26T22:00:01.441Z,2.87
2017-12-26T22:02:28.949Z,2.40
2017-12-26T22:04:56.475Z,1.23
2017-12-26T22:07:24.315Z,2.17
2017-12-26T22:09:51.808Z,1.57
2017-12-26T22:12:19.387Z,1.70
2017-12-26T22:14:47.703Z,1.70
2017-12-26T22:17:15.252Z,1.40
2017-12-26T22:19:43.051Z,2.00
2017-12-26T22:22:10.715Z,1.77
2017-12-26T22:24:38.483Z,1.40
2017-12-26T22:27:06.142Z,2.03
2017-12-26T22:29:34.440Z,2.43
2017-12-26T22:32:02.124Z,1.77
2017-12-26T22:34:29.654Z,1.40
2017-12-26T22:36:57.914Z,2.20
2017-12-26T22:39:25.373Z,2.07
2017-12-26T22:41:52.825Z,2.37
2017-12-26T22:44:20.301Z,1.63
2017-12-26T22:46:47.766Z,1.97
2017-12-26T22:49:15.249Z,2.60
2017-12-26T22:51:43.481Z,1.90
2017-12-26T22:54:11.689Z,1.67
2017-12-26T22:56:39.930Z,1.83
2017-12-26T22:59:07.385Z,1.60
2017-12-26T23:01:34.861Z,1.90
2017-12-26T23:04:02.314Z,1.87
2017-12-26T23:06:29.808Z,1.63
2017-12-26T23:08:57.257Z,1.63
2017-12-26T23:11:24.701Z,2.30
2017-12-26T23:17:02.510Z,1.77
2017-12-26T23:19:29.963Z,2.37
2017-12-26T23:21:57.413Z,1.87
2017-12-26T23:24:30.477Z,2.20
2017-12-26T23:27:03.601Z,1.87
2017-12-26T23:29:36.828Z,1.70
2017-12-26T23:32:10.623Z,2.03
2017-12-26T23:34:43.842Z,1.30
2017-12-26T23:37:17.789Z,2.20
2017-12-26T23:39:51.009Z,1.80
2017-12-26T23:42:24.093Z,2.23
2017-12-26T23:44:57.326Z,2.40
2017-12-26T23:47:30.327Z,2.03
2017-12-26T23:50:03.449Z,2.40
2017-12-26T23:52:36.505Z,2.17
2017-12-26T23:55:09.768Z,2.50
2017-12-26T23:57:42.933Z,1.90
